Time;durP1;ratioP1;P1;durP2;ratioP2;P2;SDS_P1;SDS_P2;PMS_P1;PMS_P2;Temp;Humidity;BMP_temperature;BMP_pressure;BME280_temperature;BME280_humidity;BME280_pressure;Samples;Min_cycle;Max_cycle;Signal;HPM_P1;HPM_P2
2022/09/12 00:02:21;;;;;;;9.43;5.40;;;13.40;99.90;;;;;;5072222;28;20376;-51
2022/09/12 00:04:47;;;;;;;6.25;5.20;;;13.30;99.90;;;;;;5073390;28;20063;-51
2022/09/12 00:07:13;;;;;;;13.60;5.07;;;13.30;99.90;;;;;;5073569;28;20075;-51
2022/09/12 00:09:39;;;;;;;5.72;5.22;;;13.20;99.90;;;;;;5072969;28;20487;-50
2022/09/12 00:12:04;;;;;;;7.35;6.07;;;13.20;99.90;;;;;;5073442;28;20082;-51
2022/09/12 00:14:30;;;;;;;6.18;5.57;;;13.20;99.90;;;;;;5073250;28;20021;-50
2022/09/12 00:16:58;;;;;;;6.45;5.70;;;13.20;99.90;;;;;;5073305;28;20491;-51
2022/09/12 00:19:24;;;;;;;8.10;5.40;;;13.20;99.90;;;;;;5073412;28;20039;-53
2022/09/12 00:21:50;;;;;;;6.18;5.53;;;13.30;99.90;;;;;;5073143;28;20368;-51
2022/09/12 00:24:15;;;;;;;6.43;5.53;;;13.40;99.90;;;;;;5073074;28;20035;-50
2022/09/12 00:26:41;;;;;;;9.48;5.72;;;13.40;99.90;;;;;;5073018;28;20029;-52
2022/09/12 00:29:07;;;;;;;11.23;6.20;;;13.30;99.90;;;;;;5072921;28;20046;-51
2022/09/12 00:31:32;;;;;;;5.85;5.25;;;13.30;99.90;;;;;;5072823;28;20025;-52
2022/09/12 00:34:00;;;;;;;13.13;5.97;;;13.20;99.90;;;;;;5072878;28;20049;-51
2022/09/12 00:36:26;;;;;;;9.38;5.45;;;13.20;99.90;;;;;;5072668;28;20073;-51
2022/09/12 00:38:53;;;;;;;12.15;5.35;;;13.20;99.90;;;;;;5072895;28;20367;-51
2022/09/12 00:41:27;;;;;;;6.03;5.50;;;13.30;99.90;;;;;;5072837;28;20391;-51
2022/09/12 00:43:56;;;;;;;7.75;6.95;;;13.20;99.90;;;;;;5071278;28;20380;-51
2022/09/12 00:46:36;;;;;;;6.75;5.82;;;13.20;99.90;;;;;;5072718;28;20103;-52
2022/09/12 00:49:11;;;;;;;9.57;5.82;;;13.20;99.90;;;;;;5072555;28;20095;-51
2022/09/12 00:51:39;;;;;;;9.98;6.40;;;13.20;99.90;;;;;;5072284;28;20061;-53
2022/09/12 00:54:13;;;;;;;6.70;6.10;;;13.20;99.90;;;;;;5072321;28;20016;-50
2022/09/12 00:56:41;;;;;;;7.07;6.38;;;13.20;99.90;;;;;;5072471;28;20460;-50
2022/09/12 00:59:15;;;;;;;6.70;6.10;;;13.10;99.90;;;;;;5072477;28;20107;-51
2022/09/12 01:01:41;;;;;;;;;;;13.10;99.90;;;;;;5072676;28;20027;-52
2022/09/12 01:04:09;;;;;;;10.80;5.93;;;13.20;99.90;;;;;;5072730;28;19911;-54
2022/09/12 01:06:39;;;;;;;6.43;5.72;;;13.20;99.90;;;;;;5072042;28;20360;-51
2022/09/12 01:09:04;;;;;;;6.93;6.22;;;13.20;99.90;;;;;;5071964;28;20072;-52
2022/09/12 01:11:33;;;;;;;8.88;6.53;;;13.10;99.90;;;;;;5072144;28;20098;-50
2022/09/12 01:13:59;;;;;;;7.80;6.80;;;13.10;99.90;;;;;;5072211;28;20016;-51
2022/09/12 01:16:24;;;;;;;11.45;6.72;;;13.10;99.90;;;;;;5072043;28;20392;-50
2022/09/12 01:19:30;;;;;;;7.65;6.57;;;13.00;99.90;;;;;;5072001;28;20357;-51
2022/09/12 01:22:31;;;;;;;7.35;6.57;;;13.00;99.90;;;;;;5056723;28;20132;-52
2022/09/12 01:25:44;;;;;;;13.52;6.55;;;13.00;99.90;;;;;;5042994;28;20037;-51
2022/09/12 01:28:27;;;;;;;7.45;6.30;;;13.00;99.90;;;;;;5071964;28;20060;-52
2022/09/12 01:31:18;;;;;;;7.65;6.25;;;13.00;99.90;;;;;;5071810;28;20024;-51
2022/09/12 01:34:16;;;;;;;7.40;6.70;;;13.10;99.90;;;;;;5071265;28;20085;-53
2022/09/12 01:36:57;;;;;;;8.50;5.80;;;13.10;99.90;;;;;;5071521;28;20423;-51
2022/09/12 01:39:30;;;;;;;7.20;6.45;;;13.00;99.90;;;;;;5071702;28;20040;-52
2022/09/12 01:42:22;;;;;;;10.77;6.83;;;13.00;99.90;;;;;;5071806;28;20465;-52
2022/09/12 01:44:59;;;;;;;8.23;7.03;;;13.00;99.90;;;;;;5071767;28;20020;-50
2022/09/12 01:47:49;;;;;;;7.82;6.63;;;12.90;99.90;;;;;;5071687;28;20021;-52
2022/09/12 01:50:23;;;;;;;12.35;6.47;;;12.90;99.90;;;;;;5070430;28;20032;-50
2022/09/12 01:52:48;;;;;;;13.05;6.75;;;12.90;99.90;;;;;;5071633;28;20048;-50
2022/09/12 01:55:45;;;;;;;9.55;6.78;;;12.90;99.90;;;;;;5071606;28;20475;-51
2022/09/12 01:58:13;;;;;;;10.35;7.03;;;12.90;99.90;;;;;;5039390;28;20037;-51
2022/09/12 02:00:51;;;;;;;11.23;6.93;;;12.80;99.90;;;;;;5070006;28;20504;-51
2022/09/12 02:03:22;;;;;;;7.78;6.97;;;12.80;99.90;;;;;;5071473;28;20050;-51
2022/09/12 02:05:51;;;;;;;11.38;6.68;;;12.80;99.90;;;;;;5071573;28;20029;-50
2022/09/12 02:08:23;;;;;;;17.10;6.90;;;12.80;99.90;;;;;;5071280;28;20037;-51
2022/09/12 02:11:10;;;;;;;8.75;6.22;;;12.80;99.90;;;;;;5071431;28;20029;-50
2022/09/12 02:13:54;;;;;;;10.68;6.88;;;12.70;99.90;;;;;;5071308;28;20016;-51
2022/09/12 02:16:41;;;;;;;10.05;7.53;;;12.70;99.90;;;;;;5071521;28;20028;-50
2022/09/12 02:19:14;;;;;;;8.40;6.65;;;12.70;99.90;;;;;;5071404;28;20402;-51
2022/09/12 02:21:48;;;;;;;10.48;7.38;;;12.70;99.90;;;;;;5071254;28;20744;-51
2022/09/12 02:24:14;;;;;;;11.77;7.13;;;12.70;99.90;;;;;;5071372;28;20086;-51
2022/09/12 02:26:46;;;;;;;17.02;7.28;;;12.60;99.90;;;;;;5071060;28;20070;-53
2022/09/12 02:29:11;;;;;;;8.70;6.40;;;12.60;99.90;;;;;;5071163;28;20031;-52
2022/09/12 02:31:45;;;;;;;7.75;7.00;;;12.50;99.90;;;;;;5071082;28;20012;-50
2022/09/12 02:34:37;;;;;;;9.73;6.30;;;12.60;99.90;;;;;;5072491;28;20042;-52
2022/09/12 02:37:20;;;;;;;10.45;6.95;;;12.60;99.90;;;;;;5075155;28;20024;-51
2022/09/12 02:39:46;;;;;;;10.27;6.50;;;12.60;99.90;;;;;;5074899;28;20417;-51
2022/09/12 02:42:12;;;;;;;7.97;6.78;;;12.60;99.90;;;;;;5075110;28;20158;-51
2022/09/12 02:44:38;;;;;;;7.28;6.50;;;12.60;99.90;;;;;;5074767;28;20032;-52
2022/09/12 02:47:17;;;;;;;10.45;6.90;;;12.60;99.90;;;;;;5074855;28;20031;-51
2022/09/12 02:49:43;;;;;;;7.82;6.85;;;12.50;99.90;;;;;;5074612;28;20032;-52
2022/09/12 02:52:08;;;;;;;11.15;6.65;;;12.50;99.90;;;;;;5074727;28;20356;-50
2022/09/12 02:54:36;;;;;;;7.82;7.03;;;12.50;99.90;;;;;;5074468;28;20059;-51
2022/09/12 02:57:04;;;;;;;7.10;6.05;;;12.40;99.90;;;;;;5074404;28;20021;-50
2022/09/12 02:59:30;;;;;;;7.22;6.53;;;12.40;99.90;;;;;;5074589;28;20024;-51
2022/09/12 03:02:18;;;;;;;9.95;6.50;;;12.30;99.90;;;;;;5074775;28;20086;-53
2022/09/12 03:05:05;;;;;;;6.82;6.22;;;12.30;99.90;;;;;;5073294;28;20029;-51
2022/09/12 03:07:41;;;;;;;6.97;6.30;;;12.30;99.90;;;;;;5074253;28;20056;-50
2022/09/12 03:10:39;;;;;;;13.63;6.82;;;12.30;99.90;;;;;;5074653;28;20035;-50
2022/09/12 03:13:29;;;;;;;15.00;6.95;;;12.30;99.90;;;;;;5074418;28;20017;-51
2022/09/12 03:16:00;;;;;;;13.98;6.97;;;12.20;99.90;;;;;;5074266;28;20447;-52
2022/09/12 03:18:42;;;;;;;42.97;7.75;;;12.10;99.90;;;;;;5073930;28;20032;-50
2022/09/12 03:21:22;;;;;;;8.90;7.15;;;12.00;99.90;;;;;;5074073;28;20104;-53
2022/09/12 03:24:10;;;;;;;16.50;6.80;;;12.00;99.90;;;;;;5074111;28;20082;-51
2022/09/12 03:26:53;;;;;;;38.72;6.95;;;11.90;99.90;;;;;;5074111;28;20025;-52
2022/09/12 03:29:20;;;;;;;64.82;7.60;;;11.80;99.90;;;;;;5074173;28;20028;-50
2022/09/12 03:31:54;;;;;;;15.52;5.30;;;11.80;99.90;;;;;;5074046;28;20103;-50
2022/09/12 03:34:21;;;;;;;62.85;6.18;;;11.80;99.90;;;;;;5074302;28;20025;-50
2022/09/12 03:36:54;;;;;;;27.58;4.22;;;11.90;99.90;;;;;;5073864;28;20021;-52
2022/09/12 03:39:23;;;;;;;106.90;7.77;;;11.90;99.90;;;;;;5073718;28;20371;-53
2022/09/12 03:41:49;;;;;;;162.95;9.35;;;11.90;99.90;;;;;;5072655;28;20641;-51
2022/09/12 03:44:16;;;;;;;109.28;7.93;;;11.80;99.90;;;;;;5073625;28;20029;-52
2022/09/12 03:46:42;;;;;;;186.52;9.98;;;11.70;99.90;;;;;;5073544;28;20021;-52
2022/09/12 03:49:07;;;;;;;85.32;7.40;;;11.70;99.90;;;;;;5073677;28;20562;-52
2022/09/12 03:51:33;;;;;;;47.63;6.38;;;11.70;99.90;;;;;;5073682;28;20025;-50
2022/09/12 03:53:59;;;;;;;48.17;5.45;;;11.60;99.90;;;;;;5073617;28;20040;-51
2022/09/12 03:56:24;;;;;;;54.63;6.75;;;11.60;99.90;;;;;;5073532;28;20023;-51
2022/09/12 03:58:50;;;;;;;40.42;6.30;;;11.50;99.90;;;;;;5073707;28;20456;-50
2022/09/12 04:01:18;;;;;;;69.22;6.70;;;11.40;99.90;;;;;;5073628;28;20590;-51
2022/09/12 04:03:47;;;;;;;35.88;6.15;;;11.30;99.90;;;;;;5073307;28;20029;-50
2022/09/12 04:06:14;;;;;;;66.15;6.38;;;11.30;99.90;;;;;;5073599;28;20100;-51
2022/09/12 04:08:42;;;;;;;200.82;8.75;;;11.20;99.90;;;;;;5073038;28;20379;-51
2022/09/12 04:11:13;;;;;;;96.25;6.63;;;11.10;99.90;;;;;;5073442;28;20020;-51
2022/09/12 04:13:41;;;;;;;398.52;13.85;;;11.10;99.90;;;;;;5073097;28;20508;-50
2022/09/12 04:16:07;;;;;;;231.07;11.23;;;11.00;99.90;;;;;;5073205;28;20562;-54
2022/09/12 04:18:34;;;;;;;167.57;8.45;;;11.00;99.90;;;;;;5073107;28;20029;-51
2022/09/12 04:21:04;;;;;;;80.15;6.28;;;10.90;99.90;;;;;;5073287;28;20406;-50
2022/09/12 04:23:30;;;;;;;34.35;5.50;;;10.90;99.90;;;;;;5071708;28;20036;-52
2022/09/12 04:25:57;;;;;;;7.35;5.80;;;10.90;99.90;;;;;;5071870;28;20488;-52
2022/09/12 04:28:24;;;;;;;8.23;5.13;;;10.90;99.90;;;;;;5072911;28;20565;-53
2022/09/12 04:30:50;;;;;;;9.18;4.22;;;10.80;99.90;;;;;;5072780;28;20380;-49
2022/09/12 04:33:16;;;;;;;9.55;4.80;;;10.70;99.90;;;;;;5072585;28;20099;-51
2022/09/12 04:35:44;;;;;;;11.93;5.20;;;10.70;99.90;;;;;;5072684;28;20539;-50
2022/09/12 04:38:09;;;;;;;5.97;5.28;;;10.60;99.90;;;;;;5072787;28;20024;-50
2022/09/12 04:40:35;;;;;;;22.60;5.18;;;10.60;99.90;;;;;;5072551;28;20107;-51
2022/09/12 04:43:01;;;;;;;35.83;5.65;;;10.60;99.90;;;;;;5072746;28;20066;-51
2022/09/12 04:45:26;;;;;;;100.00;6.85;;;10.50;99.90;;;;;;5072541;28;20123;-51
2022/09/12 04:47:52;;;;;;;51.88;5.50;;;10.50;99.90;;;;;;5072629;28;20103;-50
2022/09/12 04:50:18;;;;;;;6.30;4.50;;;10.50;99.90;;;;;;5072547;28;20033;-50
2022/09/12 04:52:52;;;;;;;14.52;4.40;;;10.40;99.90;;;;;;5071476;28;20024;-50
2022/09/12 04:55:18;;;;;;;60.92;5.50;;;10.40;99.90;;;;;;5072075;28;20017;-51
2022/09/12 04:57:44;;;;;;;136.85;8.65;;;10.40;99.90;;;;;;5070079;28;20112;-52
2022/09/12 05:00:13;;;;;;;143.38;7.05;;;10.40;99.90;;;;;;5070906;28;20028;-50
2022/09/12 05:02:42;;;;;;;85.05;6.10;;;10.40;99.90;;;;;;5071045;28;20032;-50
2022/09/12 05:05:09;;;;;;;88.15;7.30;;;10.50;99.90;;;;;;5070967;28;20433;-50
2022/09/12 05:07:35;;;;;;;187.60;10.57;;;10.60;99.90;;;;;;5070676;28;20029;-51
2022/09/12 05:10:03;;;;;;;169.82;9.20;;;10.70;99.90;;;;;;5070892;28;20036;-51
2022/09/12 05:12:29;;;;;;;119.53;7.35;;;10.70;99.90;;;;;;5069317;28;20475;-50
2022/09/12 05:14:55;;;;;;;89.63;6.78;;;10.70;99.90;;;;;;5070861;28;20021;-51
2022/09/12 05:17:21;;;;;;;138.98;8.68;;;10.70;99.90;;;;;;5070827;28;20028;-51
2022/09/12 05:19:47;;;;;;;20.25;5.25;;;10.80;99.90;;;;;;5070566;28;20051;-50
2022/09/12 05:22:13;;;;;;;18.50;4.18;;;10.90;99.90;;;;;;5070746;28;20034;-51
2022/09/12 05:24:42;;;;;;;28.50;4.80;;;10.90;99.90;;;;;;5070556;28;20029;-50
2022/09/12 05:27:08;;;;;;;13.80;4.80;;;11.00;99.90;;;;;;5070362;28;20028;-50
2022/09/12 05:29:33;;;;;;;6.88;3.90;;;11.10;99.90;;;;;;5070570;28;20383;-51
2022/09/12 05:31:59;;;;;;;7.05;4.75;;;11.10;99.90;;;;;;5070617;28;20031;-52
2022/09/12 05:34:26;;;;;;;5.80;4.78;;;11.10;99.90;;;;;;5070415;28;20486;-50
2022/09/12 05:36:52;;;;;;;13.27;4.88;;;11.10;99.90;;;;;;5070562;28;20013;-50
2022/09/12 05:39:17;;;;;;;6.80;5.28;;;11.10;99.90;;;;;;5070549;28;20494;-53
2022/09/12 05:41:44;;;;;;;7.78;5.72;;;11.00;99.90;;;;;;5070186;28;20579;-51
2022/09/12 05:44:12;;;;;;;5.93;5.35;;;11.10;99.90;;;;;;5070455;28;20099;-51
2022/09/12 05:46:40;;;;;;;5.65;5.15;;;11.20;99.90;;;;;;5068772;28;20038;-51
2022/09/12 05:49:09;;;;;;;7.88;5.30;;;11.20;99.90;;;;;;5070268;28;20082;-51
2022/09/12 05:51:37;;;;;;;5.90;5.30;;;11.40;99.90;;;;;;5070288;28;20424;-52
2022/09/12 05:54:04;;;;;;;6.72;5.68;;;11.40;99.90;;;;;;5070314;28;20361;-51
2022/09/12 05:56:46;;;;;;;5.30;4.80;;;11.40;99.90;;;;;;5068980;28;20056;-51
2022/09/12 05:59:12;;;;;;;6.95;4.85;;;11.50;99.90;;;;;;5070379;28;20024;-50
2022/09/12 06:01:38;;;;;;;5.93;5.32;;;11.70;99.90;;;;;;5070136;28;20099;-52
2022/09/12 06:04:05;;;;;;;10.75;5.53;;;11.70;99.90;;;;;;5070222;28;20094;-49
2022/09/12 06:06:35;;;;;;;5.47;4.97;;;11.80;99.90;;;;;;5068722;28;20048;-51
2022/09/12 06:09:02;;;;;;;8.60;5.13;;;12.00;99.90;;;;;;5068366;28;20534;-51
2022/09/12 06:11:32;;;;;;;5.28;4.85;;;12.10;99.90;;;;;;5069880;28;20496;-50
2022/09/12 06:13:59;;;;;;;5.88;5.28;;;12.10;99.90;;;;;;5069948;28;20125;-51
2022/09/12 06:16:33;;;;;;;6.15;5.60;;;12.20;99.90;;;;;;5070135;28;20025;-50
2022/09/12 06:19:03;;;;;;;5.50;4.93;;;12.30;99.90;;;;;;5068790;28;20020;-52
2022/09/12 06:21:34;;;;;;;6.53;5.20;;;12.30;99.90;;;;;;5069894;28;20535;-51
2022/09/12 06:24:00;;;;;;;5.88;5.30;;;12.40;99.90;;;;;;5070131;28;20050;-53
2022/09/12 06:26:28;;;;;;;7.63;5.60;;;12.50;99.90;;;;;;5069789;28;20463;-51
2022/09/12 06:28:55;;;;;;;20.55;5.63;;;12.60;99.90;;;;;;5069936;28;20472;-51
2022/09/12 06:31:24;;;;;;;9.88;5.78;;;12.60;99.90;;;;;;5069950;28;20103;-50
2022/09/12 06:33:51;;;;;;;5.50;5.00;;;12.60;99.90;;;;;;5069864;28;20103;-50
2022/09/12 06:36:26;;;;;;;5.55;5.05;;;12.70;99.90;;;;;;5069985;28;20062;-51
2022/09/12 06:38:57;;;;;;;8.05;4.38;;;12.80;99.90;;;;;;5068525;28;20528;-50
2022/09/12 06:41:24;;;;;;;11.63;4.80;;;12.80;99.90;;;;;;5069844;28;20037;-53
2022/09/12 06:43:50;;;;;;;6.95;4.72;;;12.80;99.90;;;;;;5068514;28;20024;-52
2022/09/12 06:46:16;;;;;;;4.78;4.38;;;12.90;99.90;;;;;;5068186;28;20028;-51
2022/09/12 06:48:42;;;;;;;4.68;4.13;;;13.00;99.90;;;;;;5069642;28;20055;-50
2022/09/12 06:51:16;;;;;;;4.05;3.63;;;13.00;99.90;;;;;;5068486;28;20035;-51
2022/09/12 06:53:43;;;;;;;5.10;3.53;;;13.20;99.90;;;;;;5069817;28;20031;-51
2022/09/12 06:56:10;;;;;;;4.90;4.20;;;13.20;99.90;;;;;;5069700;28;20052;-50
2022/09/12 06:58:35;;;;;;;5.28;4.75;;;13.30;99.90;;;;;;5069633;28;20055;-53
2022/09/12 07:01:04;;;;;;;5.75;5.05;;;13.40;99.90;;;;;;5068223;28;20055;-51
2022/09/12 07:03:30;;;;;;;8.15;5.88;;;13.40;99.90;;;;;;5069561;28;20028;-50
2022/09/12 07:05:56;;;;;;;7.38;5.20;;;13.60;99.90;;;;;;5069648;28;20024;-50
2022/09/12 07:08:22;;;;;;;6.38;5.50;;;13.70;99.90;;;;;;5069167;28;20126;-49
2022/09/12 07:10:48;;;;;;;7.38;4.75;;;13.80;99.90;;;;;;5069550;28;20419;-51
2022/09/12 07:13:13;;;;;;;6.10;5.38;;;14.00;99.90;;;;;;5069620;28;20036;-50
2022/09/12 07:15:39;;;;;;;6.63;5.57;;;14.10;99.90;;;;;;5069252;28;20023;-50
2022/09/12 07:18:05;;;;;;;4.88;4.40;;;14.20;99.90;;;;;;5069553;28;20024;-52
2022/09/12 07:20:36;;;;;;;5.63;5.07;;;14.30;99.90;;;;;;5070838;28;20024;-50
2022/09/12 07:23:02;;;;;;;5.85;4.57;;;14.40;99.90;;;;;;5073128;28;20492;-51
2022/09/12 07:25:28;;;;;;;4.88;4.38;;;14.50;99.90;;;;;;5072814;28;20066;-52
2022/09/12 07:27:54;;;;;;;4.78;4.38;;;14.60;99.90;;;;;;5072741;28;20020;-51
2022/09/12 07:30:21;;;;;;;4.50;4.10;;;14.70;99.90;;;;;;5072851;28;20024;-51
2022/09/12 07:32:46;;;;;;;5.03;4.25;;;14.80;99.90;;;;;;5072686;28;20393;-50
2022/09/12 07:35:12;;;;;;;4.40;4.00;;;14.90;99.90;;;;;;5072885;28;20032;-52
2022/09/12 07:37:38;;;;;;;5.15;3.83;;;15.10;99.90;;;;;;5072748;28;20031;-51
2022/09/12 07:40:04;;;;;;;3.95;3.65;;;15.20;99.90;;;;;;5072761;28;20031;-50
2022/09/12 07:42:30;;;;;;;5.30;4.00;;;15.20;99.90;;;;;;5072626;28;20107;-51
2022/09/12 07:44:55;;;;;;;4.05;3.65;;;15.30;99.90;;;;;;5072615;28;20017;-51
2022/09/12 07:47:21;;;;;;;4.18;3.78;;;15.40;99.90;;;;;;5071203;28;20032;-51
2022/09/12 07:49:47;;;;;;;7.18;3.95;;;15.50;99.90;;;;;;5070987;28;20029;-51
2022/09/12 07:52:12;;;;;;;4.35;3.97;;;15.60;99.90;;;;;;5072529;28;20070;-50
2022/09/12 07:54:38;;;;;;;4.43;4.03;;;15.80;99.90;;;;;;5072368;28;20066;-51
2022/09/12 07:57:04;;;;;;;5.07;3.97;;;15.90;99.90;;;;;;5072458;28;20020;-51
2022/09/12 07:59:29;;;;;;;3.95;3.65;;;16.00;99.90;;;;;;5070799;28;20040;-52
2022/09/12 08:01:55;;;;;;;4.70;3.55;;;16.10;99.90;;;;;;5072300;28;20025;-50
2022/09/12 08:04:21;;;;;;;5.68;4.20;;;16.20;99.90;;;;;;5072270;28;20078;-52
2022/09/12 08:06:46;;;;;;;4.10;3.80;;;16.30;99.90;;;;;;5070634;28;20025;-51
2022/09/12 08:09:14;;;;;;;5.10;4.03;;;16.40;99.90;;;;;;5071938;28;20045;-50
2022/09/12 08:11:39;;;;;;;4.75;4.13;;;16.50;99.90;;;;;;5071980;28;20045;-51
2022/09/12 08:14:05;;;;;;;5.35;4.40;;;16.60;99.90;;;;;;5072036;28;20475;-51
2022/09/12 08:16:31;;;;;;;4.95;4.45;;;16.70;99.90;;;;;;5071996;28;20032;-51
2022/09/12 08:18:59;;;;;;;5.97;5.05;;;16.70;99.90;;;;;;5071996;28;20123;-51
2022/09/12 08:21:28;;;;;;;5.22;4.78;;;16.80;99.90;;;;;;5071878;28;20412;-53
2022/09/12 08:24:00;;;;;;;11.82;5.40;;;16.90;99.90;;;;;;5072006;28;20033;-50
2022/09/12 08:26:26;;;;;;;5.75;4.88;;;17.00;99.90;;;;;;5070403;28;20048;-51
2022/09/12 08:28:52;;;;;;;5.47;4.97;;;17.10;99.90;;;;;;5071675;28;20395;-52
2022/09/12 08:31:20;;;;;;;7.38;5.43;;;17.20;99.90;;;;;;5071586;28;20031;-52
2022/09/12 08:33:45;;;;;;;8.13;5.22;;;17.30;99.90;;;;;;5071514;28;20024;-50
2022/09/12 08:36:13;;;;;;;7.03;5.90;;;17.40;99.90;;;;;;5072058;28;20029;-51
2022/09/12 08:38:41;;;;;;;7.07;6.38;;;17.50;99.90;;;;;;5071576;28;20024;-51
2022/09/12 08:41:36;;;;;;;5.38;4.88;;;17.70;99.90;;;;;;5071588;28;20048;-51
2022/09/12 08:44:13;;;;;;;5.78;5.28;;;17.90;99.90;;;;;;5071681;28;20077;-50
2022/09/12 08:47:06;;;;;;;7.45;6.18;;;18.10;99.90;;;;;;5071363;28;20407;-50
2022/09/12 08:49:55;;;;;;;10.65;5.22;;;18.20;99.90;;;;;;5071013;28;20028;-52
2022/09/12 08:52:24;;;;;;;6.95;6.25;;;18.50;99.90;;;;;;5071346;28;20534;-54
2022/09/12 08:54:50;;;;;;;6.35;5.75;;;18.40;99.90;;;;;;5071531;28;20383;-51
2022/09/12 08:57:17;;;;;;;15.07;6.38;;;18.50;99.90;;;;;;5071158;28;20025;-51
2022/09/12 08:59:44;;;;;;;5.38;4.85;;;18.70;99.90;;;;;;5069699;28;20040;-50
2022/09/12 09:02:25;;;;;;;7.82;4.97;;;19.10;99.90;;;;;;5071304;28;20060;-50
2022/09/12 09:05:15;;;;;;;5.78;5.18;;;19.50;99.90;;;;;;5071131;28;20028;-51
2022/09/12 09:08:01;;;;;;;5.10;4.40;;;19.80;99.90;;;;;;5069407;28;20499;-51
2022/09/12 09:10:46;;;;;;;6.35;4.45;;;20.00;99.90;;;;;;5070939;28;20086;-52
2022/09/12 09:14:46;;;;;;;5.80;4.55;;;20.10;99.90;;;;;;5071043;28;20047;-51
2022/09/12 09:16:29;;;;;;;5.22;4.72;;;20.20;99.90;;;;;;5070828;28;20028;-50
2022/09/12 09:19:00;;;;;;;5.35;4.88;;;20.30;99.90;;;;;;5070845;28;20024;-51
2022/09/12 09:21:38;;;;;;;5.60;4.55;;;20.30;99.90;;;;;;5069367;28;20031;-51
2022/09/12 09:24:09;;;;;;;7.95;6.38;;;20.80;99.90;;;;;;5070759;28;20036;-53
2022/09/12 09:27:05;;;;;;;6.07;4.10;;;20.80;99.90;;;;;;5070461;28;20510;-51
2022/09/12 09:29:45;;;;;;;5.88;4.65;;;21.00;99.90;;;;;;5070434;28;20036;-51
2022/09/12 09:32:22;;;;;;;8.18;4.28;;;20.70;99.90;;;;;;5069352;28;20048;-52
2022/09/12 09:34:47;;;;;;;5.47;4.57;;;20.50;99.90;;;;;;5070346;28;20025;-52
2022/09/12 09:37:22;;;;;;;4.15;3.85;;;20.80;99.90;;;;;;5070492;28;20403;-51
2022/09/12 09:40:08;;;;;;;6.68;5.10;;;20.40;99.90;;;;;;5070589;28;20357;-53
2022/09/12 09:42:43;;;;;;;5.32;4.82;;;20.00;99.90;;;;;;5069523;28;20058;-51
2022/09/12 09:45:15;;;;;;;5.30;4.80;;;19.80;99.90;;;;;;5070528;28;20372;-51
2022/09/12 09:47:56;;;;;;;7.33;3.93;;;19.70;99.90;;;;;;5069916;28;20542;-52
2022/09/12 09:50:23;;;;;;;4.10;3.75;;;19.60;99.90;;;;;;5070460;28;20354;-51
2022/09/12 09:52:50;;;;;;;7.13;3.65;;;19.60;99.90;;;;;;5070198;28;20020;-52
2022/09/12 09:55:24;;;;;;;7.32;4.13;;;19.60;99.90;;;;;;5070102;28;20029;-51
2022/09/12 09:57:51;;;;;;;7.32;3.70;;;20.10;99.90;;;;;;5069644;28;20024;-51
2022/09/12 10:00:31;;;;;;;7.28;4.43;;;20.40;99.90;;;;;;5070369;28;20013;-50
2022/09/12 10:03:08;;;;;;;4.28;3.60;;;21.00;99.90;;;;;;5070230;28;20415;-52
2022/09/12 10:05:45;;;;;;;4.47;4.07;;;21.40;99.90;;;;;;5070165;28;20102;-51
2022/09/12 10:08:37;;;;;;;3.95;3.65;;;21.80;99.90;;;;;;5070104;28;20040;-51
2022/09/12 10:11:16;;;;;;;5.88;3.70;;;21.90;99.90;;;;;;5070050;28;20012;-52
2022/09/12 10:14:03;;;;;;;5.93;3.50;;;22.20;99.40;;;;;;5070089;28;20044;-51
2022/09/12 10:16:51;;;;;;;3.47;3.10;;;22.20;97.90;;;;;;5069968;28;20020;-51
2022/09/12 10:19:25;;;;;;;2.97;2.72;;;22.30;97.30;;;;;;5070318;28;20020;-51
2022/09/12 10:21:54;;;;;;;3.75;2.80;;;22.10;97.50;;;;;;5070424;28;20123;-55
2022/09/12 10:24:24;;;;;;;3.45;2.63;;;22.60;96.90;;;;;;5070402;28;20024;-52
2022/09/12 10:27:05;;;;;;;2.28;2.08;;;23.30;95.90;;;;;;5070164;28;20582;-51
2022/09/12 10:29:34;;;;;;;2.47;2.25;;;23.60;94.70;;;;;;5069906;28;20286;-51
2022/09/12 10:32:07;;;;;;;4.70;1.90;;;24.00;92.80;;;;;;5070035;28;20020;-51
2022/09/12 10:34:43;;;;;;;4.80;2.00;;;23.90;92.00;;;;;;5070159;28;20017;-54
2022/09/12 10:37:18;;;;;;;3.10;2.28;;;23.90;94.10;;;;;;5070330;28;20040;-52
2022/09/12 10:39:52;;;;;;;3.65;2.50;;;23.50;92.90;;;;;;5069767;28;20136;-53
2022/09/12 10:42:43;;;;;;;3.17;2.85;;;23.60;92.50;;;;;;5069940;28;20025;-51
2022/09/12 10:45:24;;;;;;;2.90;2.70;;;23.30;92.80;;;;;;5068483;28;20021;-51
2022/09/12 10:47:52;;;;;;;3.42;2.53;;;23.80;94.00;;;;;;5069657;28;20370;-54
2022/09/12 10:50:25;;;;;;;5.07;2.67;;;23.10;92.50;;;;;;5069848;28;20471;-51
2022/09/12 10:52:53;;;;;;;3.72;2.45;;;23.90;95.00;;;;;;5069829;28;20036;-51
2022/09/12 10:55:25;;;;;;;2.30;2.10;;;24.30;93.80;;;;;;5071171;28;20440;-51
2022/09/12 10:58:07;;;;;;;2.78;2.15;;;24.90;93.20;;;;;;5073852;28;20028;-51
2022/09/12 11:00:38;;;;;;;3.95;2.38;;;25.10;92.80;;;;;;5073278;28;20028;-50
2022/09/12 11:03:23;;;;;;;2.60;2.40;;;24.40;91.10;;;;;;5073531;28;20070;-51
2022/09/12 11:05:59;;;;;;;3.28;2.58;;;23.20;92.60;;;;;;5073497;28;20025;-52
2022/09/12 11:08:48;;;;;;;8.00;1.92;;;23.00;94.80;;;;;;5071652;28;20503;-55
2022/09/12 11:11:50;;;;;;;2.83;2.28;;;22.70;94.90;;;;;;5073302;28;20021;-53
2022/09/12 11:14:20;;;;;;;2.85;2.55;;;22.40;94.90;;;;;;5073294;28;20407;-50
2022/09/12 11:17:21;;;;;;;4.97;3.22;;;22.00;95.60;;;;;;5073082;28;20028;-54
2022/09/12 11:19:50;;;;;;;5.15;2.95;;;21.50;96.40;;;;;;5010693;28;20030;-51
2022/09/12 11:22:21;;;;;;;5.55;2.85;;;21.20;96.90;;;;;;5073254;28;20028;-51
2022/09/12 11:25:11;;;;;;;5.03;3.50;;;21.00;97.80;;;;;;5072916;28;20107;-51
2022/09/12 11:27:36;;;;;;;2.78;2.30;;;21.00;98.00;;;;;;5072776;28;20027;-53
2022/09/12 11:30:08;;;;;;;3.35;2.95;;;20.90;97.60;;;;;;5072971;28;20025;-51
2022/09/12 11:33:04;;;;;;;3.38;2.15;;;20.90;97.80;;;;;;5072747;28;20029;-52
2022/09/12 11:35:39;;;;;;;6.63;2.42;;;22.10;97.90;;;;;;5072674;28;20020;-53
2022/09/12 11:38:45;;;;;;;4.88;2.00;;;24.00;93.30;;;;;;5071461;28;20205;-55
2022/09/12 11:41:23;;;;;;;3.67;1.85;;;26.30;90.90;;;;;;5073038;28;20060;-55
2022/09/12 11:44:14;;;;;;;2.30;1.40;;;27.70;83.00;;;;;;5072759;28;20028;-55
2022/09/12 11:46:42;;;;;;;3.53;1.45;;;29.50;76.90;;;;;;5072523;28;20020;-53
2022/09/12 11:49:13;;;;;;;3.92;1.80;;;30.50;72.30;;;;;;5072585;28;20020;-52
2022/09/12 11:51:42;;;;;;;1.25;1.17;;;30.80;69.20;;;;;;5072502;28;20012;-54
2022/09/12 11:54:43;;;;;;;2.85;1.30;;;31.10;67.90;;;;;;5072553;28;20027;-56
2022/09/12 11:57:24;;;;;;;1.80;1.40;;;33.20;59.70;;;;;;5072249;28;20021;-52
2022/09/12 11:59:55;;;;;;;1.23;1.10;;;32.90;56.70;;;;;;5072423;28;20476;-54
2022/09/12 12:02:28;;;;;;;1.20;1.10;;;30.80;54.90;;;;;;5072495;28;20104;-53
2022/09/12 12:04:54;;;;;;;;;;;29.30;59.50;;;;;;5072796;28;20025;-55
2022/09/12 12:07:19;;;;;;;1.73;1.48;;;28.60;61.00;;;;;;5071438;28;19920;-53
2022/09/12 12:09:50;;;;;;;9.93;1.58;;;27.80;60.40;;;;;;5072308;28;20028;-51
2022/09/12 12:12:27;;;;;;;2.30;1.10;;;27.50;64.30;;;;;;5072232;28;20484;-54
2022/09/12 12:15:06;;;;;;;1.67;1.35;;;28.60;65.90;;;;;;5072184;28;20436;-52
2022/09/12 12:17:32;;;;;;;0.80;0.80;;;29.70;62.70;;;;;;5071905;28;20644;-52
2022/09/12 12:20:02;;;;;;;2.38;1.20;;;30.60;61.50;;;;;;5072116;28;20059;-54
2022/09/12 12:22:28;;;;;;;3.42;1.30;;;30.90;58.80;;;;;;5071909;28;20078;-54
2022/09/12 12:24:54;;;;;;;1.30;1.10;;;31.40;58.00;;;;;;5072007;28;20024;-52
2022/09/12 12:27:43;;;;;;;3.63;0.93;;;31.90;57.40;;;;;;5071950;28;20033;-54
2022/09/12 12:30:29;;;;;;;1.08;0.98;;;32.00;55.90;;;;;;5071644;28;20024;-55
2022/09/12 12:33:11;;;;;;;1.92;0.80;;;32.40;54.70;;;;;;5040210;28;20032;-55
2022/09/12 12:35:41;;;;;;;;;;;31.80;53.50;;;;;;5072209;28;20017;-55
2022/09/12 12:38:31;;;;;;;1.35;0.80;;;32.50;52.40;;;;;;5070363;28;19932;-52
2022/09/12 12:41:15;;;;;;;0.98;0.77;;;32.60;51.70;;;;;;5071598;28;20023;-56
2022/09/12 12:43:42;;;;;;;1.73;1.00;;;32.80;50.60;;;;;;5071276;28;20069;-55
2022/09/12 12:46:11;;;;;;;1.30;0.85;;;32.50;51.30;;;;;;5071530;28;20088;-56
2022/09/12 12:49:14;;;;;;;1.83;0.88;;;32.30;50.90;;;;;;5071234;28;20105;-53
2022/09/12 12:51:53;;;;;;;4.57;0.80;;;31.90;49.10;;;;;;5071026;28;20024;-56
2022/09/12 12:54:29;;;;;;;0.93;0.88;;;32.40;50.00;;;;;;5071606;28;20513;-55
2022/09/12 12:57:25;;;;;;;2.38;0.90;;;33.40;49.30;;;;;;5071327;28;20020;-55
2022/09/12 13:00:26;;;;;;;2.35;0.75;;;33.20;49.70;;;;;;5071158;28;20074;-56
2022/09/12 13:03:16;;;;;;;2.53;1.00;;;33.60;49.90;;;;;;5071181;28;20051;-54
2022/09/12 13:05:53;;;;;;;0.88;0.65;;;33.30;48.90;;;;;;5070990;28;20016;-57
2022/09/12 13:08:19;;;;;;;5.00;0.80;;;32.90;49.80;;;;;;5070893;28;20400;-55
2022/09/12 13:10:58;;;;;;;1.27;0.90;;;32.40;49.40;;;;;;5070861;28;20017;-55
2022/09/12 13:13:48;;;;;;;5.57;1.55;;;32.20;48.50;;;;;;5070928;28;20023;-55
2022/09/12 13:16:30;;;;;;;4.93;1.00;;;31.80;50.00;;;;;;5070953;28;20021;-53